Time;durP1;ratioP1;P1;durP2;ratioP2;P2;SDS_P1;SDS_P2;PMS_P1;PMS_P2;Temp;Humidity;BMP_temperature;BMP_pressure;BME280_temperature;BME280_humidity;BME280_pressure;Samples;Min_cycle;Max_cycle;Signal;HPM_P1;HPM_P2
2023/06/20 00:01:45;;;;;;;11.63;6.22;;;;;;;-143.48;65.94;118439.88;5034698;28;20503;-71
2023/06/20 00:04:10;;;;;;;13.02;6.43;;;;;;;-143.48;66.50;118439.88;5016372;28;20171;-71
2023/06/20 00:06:35;;;;;;;10.70;6.70;;;;;;;-143.48;67.07;118439.88;5034374;28;20159;-71
2023/06/20 00:09:00;;;;;;;10.82;6.65;;;;;;;-143.48;65.65;118439.88;5034644;28;20361;-71
2023/06/20 00:11:26;;;;;;;10.95;6.30;;;;;;;-143.48;65.39;118439.88;5034509;28;20057;-71
2023/06/20 00:13:51;;;;;;;12.52;6.47;;;;;;;-143.48;66.35;118439.88;5016700;28;20026;-71
2023/06/20 00:16:20;;;;;;;10.75;6.20;;;;;;;-143.48;65.60;118439.88;5034219;28;20509;-71
2023/06/20 00:18:53;;;;;;;9.00;6.22;;;;;;;-143.48;66.13;118439.88;5016177;28;20095;-71
2023/06/20 00:21:19;;;;;;;11.00;6.35;;;;;;;-143.48;65.87;118439.88;5015169;28;20499;-71
2023/06/20 00:23:45;;;;;;;11.18;6.15;;;;;;;-143.48;65.14;118439.88;5016038;28;20028;-72
2023/06/20 00:26:10;;;;;;;14.68;6.45;;;;;;;-143.48;65.13;118439.88;5016061;28;20029;-71
2023/06/20 00:28:35;;;;;;;13.98;6.40;;;;;;;-143.48;64.61;118439.88;5033824;28;20025;-71
2023/06/20 00:31:01;;;;;;;9.13;6.05;;;;;;;-143.48;64.64;118439.88;5034149;28;20075;-71
2023/06/20 00:33:26;;;;;;;9.68;5.93;;;;;;;-143.48;65.24;118439.88;5033824;28;20124;-71
2023/06/20 00:35:51;;;;;;;9.13;6.20;;;;;;;-143.48;65.05;118439.88;5015917;28;20034;-72
2023/06/20 00:38:16;;;;;;;10.77;6.15;;;;;;;-143.48;64.80;118439.88;5015792;28;20022;-71
2023/06/20 00:40:42;;;;;;;9.57;5.75;;;;;;;-143.48;64.97;118439.88;5033816;28;20460;-72
2023/06/20 00:43:07;;;;;;;10.90;6.07;;;;;;;-143.48;64.49;118439.88;5016210;28;20072;-71
2023/06/20 00:45:33;;;;;;;12.52;6.32;;;;;;;-143.48;64.33;118439.88;5016261;28;20457;-71
2023/06/20 00:48:07;;;;;;;8.35;5.75;;;;;;;-143.48;64.20;118439.88;5016362;28;20068;-71
2023/06/20 00:50:33;;;;;;;9.23;5.65;;;;;;;-143.48;63.91;118439.88;5015873;28;20495;-71
2023/06/20 00:53:01;;;;;;;9.35;6.00;;;;;;;-143.48;63.73;118439.88;5033419;28;20026;-71
2023/06/20 00:55:28;;;;;;;13.10;6.20;;;;;;;-143.48;63.08;118439.88;5033698;28;20112;-71
2023/06/20 00:57:58;;;;;;;8.63;5.60;;;;;;;-143.48;62.84;118439.88;5015463;28;20017;-71
2023/06/20 01:00:24;;;;;;;10.40;6.15;;;;;;;-143.48;62.27;118439.88;5033610;28;20410;-71
2023/06/20 01:02:53;;;;;;;9.05;5.78;;;;;;;-143.48;62.57;118439.88;5033138;28;20033;-71
2023/06/20 01:05:27;;;;;;;8.68;5.57;;;;;;;-143.48;62.84;118439.88;5015615;28;20465;-71
2023/06/20 01:08:15;;;;;;;9.52;5.72;;;;;;;-143.48;63.54;118439.88;5015453;28;20040;-72
2023/06/20 01:11:00;;;;;;;9.02;5.70;;;;;;;-143.48;62.07;118439.88;4970543;28;20034;-71
2023/06/20 01:13:43;;;;;;;10.48;5.55;;;;;;;-143.48;62.18;118439.88;5015785;28;20116;-71
2023/06/20 01:16:33;;;;;;;11.52;6.00;;;;;;;-143.48;63.06;118439.88;5033162;28;20041;-71
2023/06/20 01:19:35;;;;;;;12.63;5.95;;;;;;;-143.48;62.96;118439.88;5015505;28;20072;-71
2023/06/20 01:22:09;;;;;;;11.02;5.95;;;;;;;-143.48;63.64;118439.88;5033365;28;20396;-71
2023/06/20 01:24:55;;;;;;;9.95;5.97;;;;;;;-143.48;63.30;118439.88;5015261;28;20037;-71
2023/06/20 01:27:28;;;;;;;10.48;5.68;;;;;;;-143.48;63.45;118439.88;5032943;28;20068;-71
2023/06/20 01:30:09;;;;;;;11.77;6.10;;;;;;;-143.48;63.05;118439.88;5015227;28;20042;-71
2023/06/20 01:32:39;;;;;;;13.65;6.35;;;;;;;-143.48;62.73;118439.88;5017311;28;20030;-71
2023/06/20 01:35:09;;;;;;;11.25;6.30;;;;;;;-143.48;62.32;118439.88;5019451;28;20087;-71
2023/06/20 01:37:38;;;;;;;12.13;6.53;;;;;;;-143.48;62.09;118439.88;5019561;28;20053;-72
2023/06/20 01:40:06;;;;;;;14.45;6.35;;;;;;;-143.48;62.00;118439.88;5037315;28;20112;-71
2023/06/20 01:42:34;;;;;;;13.68;5.88;;;;;;;-143.48;61.21;118439.88;5019687;28;20033;-72
2023/06/20 01:45:02;;;;;;;12.27;6.20;;;;;;;-143.48;61.74;118439.88;5037412;28;20056;-71
2023/06/20 01:47:31;;;;;;;10.13;6.05;;;;;;;-143.48;61.29;118439.88;5019060;28;20105;-71
2023/06/20 01:50:00;;;;;;;10.80;6.10;;;;;;;-143.48;61.03;118439.88;5019071;28;20370;-71
2023/06/20 01:52:27;;;;;;;9.10;6.22;;;;;;;-143.48;61.48;118439.88;5037313;28;20033;-71
2023/06/20 01:54:54;;;;;;;10.07;6.53;;;;;;;-143.48;61.53;118439.88;5018879;28;20057;-72
2023/06/20 01:57:21;;;;;;;9.93;5.93;;;;;;;-143.48;61.40;118439.88;5018968;28;20030;-71
2023/06/20 01:59:46;;;;;;;15.85;6.20;;;;;;;-143.48;62.23;118439.88;5019370;28;20041;-71
2023/06/20 02:02:14;;;;;;;12.23;6.03;;;;;;;-143.48;62.47;118439.88;5018902;28;20030;-71
2023/06/20 02:04:41;;;;;;;9.77;5.85;;;;;;;-143.48;63.42;118439.88;5019098;28;20034;-72
2023/06/20 02:07:08;;;;;;;11.00;6.32;;;;;;;-143.48;62.43;118439.88;5018900;28;20032;-72
2023/06/20 02:09:35;;;;;;;11.00;6.20;;;;;;;-143.48;62.17;118439.88;5018587;28;20395;-71
2023/06/20 02:12:01;;;;;;;10.00;6.30;;;;;;;-143.48;61.25;118439.88;5019036;28;20025;-71
2023/06/20 02:14:27;;;;;;;10.98;6.10;;;;;;;-143.48;62.50;118439.88;5036824;28;20381;-72
2023/06/20 02:16:54;;;;;;;10.68;6.15;;;;;;;-143.48;62.38;118439.88;5036321;28;20029;-72
2023/06/20 02:19:19;;;;;;;11.65;6.00;;;;;;;-143.48;62.28;118439.88;5018354;28;20075;-71
2023/06/20 02:21:46;;;;;;;12.00;6.30;;;;;;;-143.48;63.94;118439.88;5018347;28;20037;-72
2023/06/20 02:24:18;;;;;;;13.40;6.40;;;;;;;-143.48;64.11;118439.88;5018842;28;20049;-72
2023/06/20 02:26:44;;;;;;;8.27;6.10;;;;;;;-143.48;64.11;118439.88;5019092;28;20031;-72
2023/06/20 02:29:11;;;;;;;10.25;6.35;;;;;;;-143.48;63.21;118439.88;5036470;28;20121;-72
2023/06/20 02:31:43;;;;;;;10.93;6.63;;;;;;;-143.48;63.18;118439.88;5018606;28;20523;-72
2023/06/20 02:34:13;;;;;;;9.23;6.13;;;;;;;-143.48;63.73;118439.88;5018644;28;20026;-72
2023/06/20 02:36:42;;;;;;;11.07;6.40;;;;;;;-143.48;63.80;118439.88;5018364;28;20116;-72
2023/06/20 02:39:07;;;;;;;10.35;6.22;;;;;;;-143.48;63.37;118439.88;5018481;28;20084;-71
2023/06/20 02:41:33;;;;;;;9.45;5.93;;;;;;;-143.48;63.90;118439.88;5035964;28;20112;-72
2023/06/20 02:43:58;;;;;;;11.57;6.55;;;;;;;-143.48;63.21;118439.88;5016918;28;20022;-72
2023/06/20 02:46:41;;;;;;;10.20;5.93;;;;;;;-143.48;62.72;118439.88;5017971;28;20029;-72
2023/06/20 02:49:39;;;;;;;10.98;6.03;;;;;;;-143.48;62.89;118439.88;5018153;28;20124;-72
2023/06/20 02:52:20;;;;;;;9.00;5.80;;;;;;;-143.48;63.18;118439.88;5036446;28;20100;-72
2023/06/20 02:55:07;;;;;;;8.63;6.10;;;;;;;-143.48;62.22;118439.88;5036123;28;20033;-72
2023/06/20 02:57:37;;;;;;;10.23;6.50;;;;;;;-143.48;62.97;118439.88;5035759;28;20125;-72
2023/06/20 03:00:09;;;;;;;10.55;6.07;;;;;;;-143.48;62.73;118439.88;5017871;28;20366;-72
2023/06/20 03:02:39;;;;;;;9.93;6.13;;;;;;;-143.48;62.85;118439.88;5018345;28;20041;-71
2023/06/20 03:05:09;;;;;;;9.57;5.90;;;;;;;-143.48;62.08;118439.88;5017557;28;20554;-72
2023/06/20 03:07:35;;;;;;;12.27;6.10;;;;;;;-143.48;62.73;118439.88;5035827;28;20038;-72
2023/06/20 03:10:06;;;;;;;11.40;6.22;;;;;;;-143.48;62.12;118439.88;5017548;28;20033;-72
2023/06/20 03:12:31;;;;;;;13.50;6.28;;;;;;;-143.48;62.48;118439.88;5035480;28;20103;-72
2023/06/20 03:14:57;;;;;;;10.27;6.57;;;;;;;-143.48;62.70;118439.88;5017892;28;20025;-71
2023/06/20 03:17:22;;;;;;;10.93;6.60;;;;;;;-143.48;62.18;118439.88;5017360;28;20120;-74
2023/06/20 03:19:47;;;;;;;11.25;6.28;;;;;;;-143.48;62.56;118439.88;5017632;28;20124;-71
2023/06/20 03:22:13;;;;;;;11.23;6.93;;;;;;;-143.48;62.76;118439.88;5017811;28;20026;-71
2023/06/20 03:24:38;;;;;;;14.30;6.50;;;;;;;-143.48;62.55;118439.88;5035007;28;20104;-71
2023/06/20 03:27:04;;;;;;;11.98;6.72;;;;;;;-143.48;62.56;118439.88;5017628;28;20027;-72
2023/06/20 03:29:29;;;;;;;9.18;6.07;;;;;;;-143.48;62.82;118439.88;5034662;28;20034;-72
2023/06/20 03:31:54;;;;;;;10.32;6.50;;;;;;;-143.48;61.98;118439.88;5035288;28;20105;-71
2023/06/20 03:34:20;;;;;;;11.07;6.35;;;;;;;-143.48;61.40;118439.88;5017393;28;20424;-72
2023/06/20 03:36:45;;;;;;;10.93;6.22;;;;;;;-143.48;61.71;118439.88;5017114;28;20021;-71
2023/06/20 03:39:11;;;;;;;11.07;6.38;;;;;;;-143.48;61.44;118439.88;5016992;28;20024;-71
2023/06/20 03:41:37;;;;;;;10.82;6.60;;;;;;;-143.48;61.61;118439.88;5016985;28;20025;-72
2023/06/20 03:44:02;;;;;;;10.70;7.15;;;;;;;-143.48;62.22;118439.88;5016936;28;20028;-72
2023/06/20 03:46:27;;;;;;;10.85;6.13;;;;;;;-143.48;62.08;118439.88;5034575;28;20033;-72
2023/06/20 03:48:53;;;;;;;10.30;6.53;;;;;;;-143.48;61.85;118439.88;5017264;28;20056;-72
2023/06/20 03:51:18;;;;;;;11.98;6.38;;;;;;;-143.48;61.85;118439.88;5017365;28;20060;-71
2023/06/20 03:53:43;;;;;;;9.32;6.13;;;;;;;-143.48;63.01;118439.88;5034757;28;20095;-72
2023/06/20 03:56:09;;;;;;;13.15;6.57;;;;;;;-143.48;62.56;118439.88;5034582;28;20025;-72
2023/06/20 03:58:34;;;;;;;9.38;6.35;;;;;;;-143.48;63.00;118439.88;5034923;28;20022;-72
2023/06/20 04:00:59;;;;;;;11.02;6.72;;;;;;;-143.48;62.44;118439.88;5016451;28;20052;-71
2023/06/20 04:03:25;;;;;;;9.90;6.50;;;;;;;-143.48;62.65;118439.88;5034503;28;20462;-72
2023/06/20 04:05:51;;;;;;;10.95;6.80;;;;;;;-143.48;62.89;118439.88;5034201;28;20032;-72
2023/06/20 04:08:17;;;;;;;12.02;7.03;;;;;;;-143.48;63.13;118439.88;5016698;28;20108;-72
2023/06/20 04:10:42;;;;;;;9.90;6.57;;;;;;;-143.48;62.61;118439.88;5016342;28;20033;-72
2023/06/20 04:13:08;;;;;;;12.25;6.80;;;;;;;-143.48;62.77;118439.88;5034361;28;20033;-71
2023/06/20 04:15:33;;;;;;;10.68;6.70;;;;;;;-143.48;62.82;118439.88;5016226;28;20125;-72
2023/06/20 04:17:58;;;;;;;11.48;6.43;;;;;;;-143.48;62.53;118439.88;5016850;28;20025;-72
2023/06/20 04:20:24;;;;;;;12.60;6.60;;;;;;;-143.48;61.74;118439.88;5034104;28;20029;-71
2023/06/20 04:22:49;;;;;;;13.48;6.80;;;;;;;-143.48;61.78;118439.88;5034482;28;20033;-72
2023/06/20 04:25:15;;;;;;;11.13;6.57;;;;;;;-143.48;62.04;118439.88;5034374;28;20036;-72
2023/06/20 04:27:42;;;;;;;10.13;6.57;;;;;;;-143.48;61.34;118439.88;5016249;28;20112;-72
2023/06/20 04:30:08;;;;;;;11.90;6.95;;;;;;;-143.48;61.90;118439.88;5015914;28;20072;-72
2023/06/20 04:32:34;;;;;;;15.57;6.82;;;;;;;-143.48;61.57;118439.88;5034140;28;20034;-72
2023/06/20 04:34:59;;;;;;;12.05;7.25;;;;;;;-143.48;61.57;118439.88;5016118;28;20404;-72
2023/06/20 04:37:25;;;;;;;11.90;7.18;;;;;;;-143.48;61.26;118439.88;5015796;28;20029;-72
2023/06/20 04:39:50;;;;;;;12.57;7.20;;;;;;;-143.48;61.82;118439.88;5015904;28;20021;-71
2023/06/20 04:42:15;;;;;;;15.38;7.00;;;;;;;-143.48;62.47;118439.88;5016188;28;20022;-71
2023/06/20 04:44:44;;;;;;;20.90;6.95;;;;;;;-143.48;61.50;118439.88;5016049;28;20029;-72
2023/06/20 04:47:12;;;;;;;13.23;7.22;;;;;;;-143.48;61.61;118439.88;5015932;28;20028;-71
2023/06/20 04:49:40;;;;;;;14.30;7.13;;;;;;;-143.48;62.06;118439.88;5016371;28;20430;-71
2023/06/20 04:52:06;;;;;;;11.88;7.22;;;;;;;-143.48;61.47;118439.88;5015990;28;20389;-71
2023/06/20 04:54:32;;;;;;;13.07;7.15;;;;;;;-143.48;61.91;118439.88;5015757;28;20037;-71
2023/06/20 04:56:57;;;;;;;11.30;7.00;;;;;;;-143.48;61.62;118439.88;5015629;28;20025;-71
2023/06/20 04:59:22;;;;;;;10.63;7.50;;;;;;;-143.48;61.77;118439.88;5033187;28;20067;-71
2023/06/20 05:01:51;;;;;;;12.15;7.50;;;;;;;-143.48;62.29;118439.88;5033848;28;20108;-71
2023/06/20 05:04:17;;;;;;;13.50;7.25;;;;;;;-143.48;61.70;118439.88;5033396;28;20021;-71
2023/06/20 05:06:42;;;;;;;16.05;7.55;;;;;;;-143.48;61.80;118439.88;5014867;28;20022;-71
2023/06/20 05:09:08;;;;;;;12.77;6.97;;;;;;;-143.48;61.92;118439.88;5015835;28;20025;-71
2023/06/20 05:11:33;;;;;;;9.88;6.82;;;;;;;-143.48;60.74;118439.88;5032972;28;20026;-71
2023/06/20 05:13:58;;;;;;;13.65;7.13;;;;;;;-143.48;60.68;118439.88;5015565;28;20139;-71
2023/06/20 05:16:24;;;;;;;14.13;6.97;;;;;;;-143.48;60.56;118439.88;5015652;28;20079;-71
2023/06/20 05:18:49;;;;;;;14.02;6.93;;;;;;;-143.48;60.67;118439.88;5033093;28;20022;-71
2023/06/20 05:21:14;;;;;;;15.35;6.82;;;;;;;-143.48;60.64;118439.88;5032812;28;20057;-71
2023/06/20 05:23:40;;;;;;;12.57;7.07;;;;;;;-143.48;60.22;118439.88;5015364;28;20025;-71
2023/06/20 05:26:05;;;;;;;11.43;7.40;;;;;;;-143.48;59.66;118439.88;5015370;28;20159;-71
2023/06/20 05:28:30;;;;;;;10.60;7.10;;;;;;;-143.48;58.85;118439.88;5015923;28;20064;-71
2023/06/20 05:30:56;;;;;;;10.38;7.43;;;;;;;-143.48;58.96;118439.88;5015548;28;20049;-72
2023/06/20 05:33:21;;;;;;;15.35;7.30;;;;;;;-143.48;58.91;118439.88;5033346;28;20036;-72
2023/06/20 05:35:46;;;;;;;11.13;6.70;;;;;;;-143.48;58.39;118439.88;5015528;28;20112;-72
2023/06/20 05:38:13;;;;;;;13.95;7.20;;;;;;;-143.48;58.22;118439.88;5014995;28;20137;-71
2023/06/20 05:40:38;;;;;;;16.85;7.35;;;;;;;-143.48;57.42;118439.88;5015183;28;20032;-71
2023/06/20 05:43:03;;;;;;;12.13;6.80;;;;;;;-143.48;57.68;118439.88;5032756;28;20112;-71
2023/06/20 05:45:29;;;;;;;10.25;7.30;;;;;;;-143.48;57.77;118439.88;5015262;28;20120;-71
2023/06/20 05:47:54;;;;;;;15.05;7.13;;;;;;;-143.48;57.19;118439.88;5032771;28;20392;-71
2023/06/20 05:50:20;;;;;;;14.27;7.70;;;;;;;-143.48;57.19;118439.88;5015442;28;20029;-71
2023/06/20 05:52:45;;;;;;;14.73;7.82;;;;;;;-143.48;56.89;118439.88;5015276;28;20048;-71
2023/06/20 05:55:10;;;;;;;14.38;7.85;;;;;;;-143.48;56.88;118439.88;5015808;28;20067;-71
2023/06/20 05:57:37;;;;;;;13.98;7.90;;;;;;;-143.48;56.86;118439.88;5015175;28;20026;-72
2023/06/20 06:00:11;;;;;;;18.55;8.43;;;;;;;-143.48;55.57;118439.88;5014941;28;20029;-72
2023/06/20 06:02:36;;;;;;;17.73;8.13;;;;;;;-143.48;54.42;118439.88;5015264;28;20072;-71
2023/06/20 06:05:02;;;;;;;15.05;8.55;;;;;;;-143.48;53.09;118439.88;5015312;28;20043;-71
2023/06/20 06:07:27;;;;;;;18.73;8.57;;;;;;;-143.48;54.60;118439.88;5014952;28;20037;-71
2023/06/20 06:10:02;;;;;;;17.27;8.40;;;;;;;-143.48;54.07;118439.88;5033820;28;20026;-76
2023/06/20 06:12:28;;;;;;;16.75;8.88;;;;;;;-143.48;54.42;118439.88;5012956;28;20029;-71
2023/06/20 06:14:53;;;;;;;15.73;8.80;;;;;;;-143.48;55.03;118439.88;5014773;28;20052;-71
2023/06/20 06:17:19;;;;;;;15.57;9.55;;;;;;;-143.48;54.94;118439.88;5014738;28;20503;-71
2023/06/20 06:19:44;;;;;;;16.20;8.73;;;;;;;-143.48;54.93;118439.88;5017970;28;20021;-70
2023/06/20 06:22:09;;;;;;;13.43;8.85;;;;;;;-143.48;55.67;118439.88;5035999;28;20509;-70
2023/06/20 06:24:35;;;;;;;17.80;9.40;;;;;;;-143.48;52.84;118439.88;5018167;28;20035;-71
2023/06/20 06:27:00;;;;;;;15.52;9.52;;;;;;;-143.48;52.66;118439.88;5035785;28;20027;-70
2023/06/20 06:29:26;;;;;;;16.80;9.18;;;;;;;-143.48;51.30;118439.88;5018025;28;20404;-71
2023/06/20 06:31:53;;;;;;;16.45;9.43;;;;;;;-143.48;48.66;118439.88;5018007;28;20018;-71
2023/06/20 06:34:18;;;;;;;14.50;8.80;;;;;;;-143.48;49.87;118439.88;5018056;28;20033;-70
2023/06/20 06:36:49;;;;;;;12.15;8.23;;;;;;;-143.48;48.88;118439.88;5017943;28;20028;-71
2023/06/20 06:39:15;;;;;;;15.00;9.68;;;;;;;-143.48;49.30;118439.88;5017241;28;20534;-71
2023/06/20 06:41:43;;;;;;;11.85;8.40;;;;;;;-143.48;48.84;118439.88;5017825;28;20033;-71
2023/06/20 06:44:08;;;;;;;15.93;8.93;;;;;;;-143.48;50.31;118439.88;5017903;28;20029;-71
2023/06/20 06:46:34;;;;;;;13.15;8.60;;;;;;;-143.48;49.51;118439.88;5035586;28;20543;-70
2023/06/20 06:48:59;;;;;;;14.95;8.77;;;;;;;-143.48;48.94;118439.88;5017818;28;20028;-71
2023/06/20 06:51:25;;;;;;;16.08;9.05;;;;;;;-143.48;50.11;118439.88;5017642;28;20033;-71
2023/06/20 06:53:50;;;;;;;15.15;8.70;;;;;;;-143.48;49.51;118439.88;5017620;28;20028;-71
2023/06/20 06:56:15;;;;;;;15.88;8.60;;;;;;;-143.48;48.68;118439.88;5035272;28;20040;-71
2023/06/20 06:58:42;;;;;;;15.23;8.98;;;;;;;-143.48;49.30;118439.88;5017406;28;20022;-70
2023/06/20 07:01:07;;;;;;;16.85;9.10;;;;;;;-143.48;50.57;118439.88;5035148;28;20021;-70
2023/06/20 07:03:33;;;;;;;17.08;9.10;;;;;;;-143.48;51.61;118439.88;5035014;28;20035;-70
2023/06/20 07:05:59;;;;;;;12.68;8.35;;;;;;;-143.48;50.73;118439.88;5017446;28;20033;-70
2023/06/20 07:08:24;;;;;;;15.30;9.07;;;;;;;-143.48;50.48;118439.88;5017909;28;20017;-70
2023/06/20 07:10:51;;;;;;;14.35;8.55;;;;;;;-143.48;50.48;118439.88;5017503;28;20025;-70
2023/06/20 07:13:17;;;;;;;17.17;8.90;;;;;;;-143.48;51.15;118439.88;5035341;28;20021;-70
2023/06/20 07:15:42;;;;;;;17.38;9.43;;;;;;;-143.48;51.23;118439.88;5001423;28;20340;-71
2023/06/20 07:18:08;;;;;;;15.18;8.95;;;;;;;-143.48;48.92;118439.88;5017209;28;20499;-71
2023/06/20 07:20:33;;;;;;;17.05;10.18;;;;;;;-143.48;50.24;118439.88;5017775;28;20056;-71
2023/06/20 07:22:59;;;;;;;13.63;8.75;;;;;;;-143.48;50.37;118439.88;5035428;28;20049;-71
2023/06/20 07:25:24;;;;;;;12.55;8.68;;;;;;;-143.48;49.17;118439.88;5035458;28;20458;-70
2023/06/20 07:27:49;;;;;;;13.05;8.77;;;;;;;-143.48;50.31;118439.88;5034782;28;20070;-71
2023/06/20 07:30:15;;;;;;;18.13;9.38;;;;;;;-143.48;50.48;118439.88;5016751;28;20068;-71
2023/06/20 07:32:40;;;;;;;17.02;9.52;;;;;;;-143.48;50.62;118439.88;5017149;28;20389;-71
2023/06/20 07:35:06;;;;;;;19.42;9.52;;;;;;;-143.48;52.22;118439.88;5016986;28;20037;-71
2023/06/20 07:37:31;;;;;;;15.75;9.90;;;;;;;-143.48;50.71;118439.88;5034673;28;20036;-71
2023/06/20 07:39:56;;;;;;;16.88;9.60;;;;;;;-143.48;48.81;118439.88;5035003;28;20037;-71
2023/06/20 07:42:22;;;;;;;13.27;9.23;;;;;;;-143.48;46.11;118439.88;5017118;28;20048;-71
2023/06/20 07:44:47;;;;;;;16.13;9.10;;;;;;;-143.48;47.25;118439.88;5034981;28;20052;-71
2023/06/20 07:47:13;;;;;;;14.55;9.43;;;;;;;-143.48;47.49;118439.88;5016992;28;20083;-71
2023/06/20 07:49:38;;;;;;;16.45;9.57;;;;;;;-143.48;46.79;118439.88;5017129;28;20037;-72
2023/06/20 07:52:04;;;;;;;17.13;10.38;;;;;;;-143.48;47.08;118439.88;5017114;28;20022;-71
2023/06/20 07:54:30;;;;;;;15.65;9.68;;;;;;;-143.48;47.14;118439.88;5016856;28;20373;-71
2023/06/20 07:56:56;;;;;;;14.73;9.70;;;;;;;-143.48;44.96;118439.88;5016967;28;20059;-71
2023/06/20 07:59:22;;;;;;;13.70;9.65;;;;;;;-143.48;46.28;118439.88;5016686;28;20079;-71
2023/06/20 08:01:47;;;;;;;13.77;10.43;;;;;;;-143.48;46.87;118439.88;5034389;28;20029;-72
2023/06/20 08:04:12;;;;;;;18.58;10.10;;;;;;;-143.48;46.44;118439.88;5016557;28;20021;-71
2023/06/20 08:06:38;;;;;;;14.73;9.35;;;;;;;-143.48;43.93;118439.88;5034570;28;20038;-71
2023/06/20 08:09:04;;;;;;;15.57;9.50;;;;;;;-143.48;45.97;118439.88;5034660;28;20048;-71
2023/06/20 08:11:30;;;;;;;13.23;9.25;;;;;;;-143.48;44.50;118439.88;5016986;28;20365;-71
2023/06/20 08:13:55;;;;;;;13.63;9.55;;;;;;;-143.48;44.40;118439.88;5016673;28;20029;-71
2023/06/20 08:16:20;;;;;;;17.17;9.25;;;;;;;-143.48;44.91;118439.88;5033897;28;20049;-71
2023/06/20 08:18:46;;;;;;;14.82;9.15;;;;;;;-143.48;43.67;118439.88;5016449;28;20022;-71
2023/06/20 08:21:11;;;;;;;21.25;9.93;;;;;;;-143.48;42.92;118439.88;5034041;28;20052;-71
2023/06/20 08:23:36;;;;;;;16.00;9.55;;;;;;;-143.48;41.58;118439.88;5016403;28;20026;-71
2023/06/20 08:26:02;;;;;;;20.30;10.50;;;;;;;-143.48;42.37;118439.88;5016501;28;20144;-71
2023/06/20 08:28:27;;;;;;;18.65;10.38;;;;;;;-143.48;43.47;118439.88;5016113;28;20060;-71
2023/06/20 08:30:53;;;;;;;20.77;11.20;;;;;;;-143.48;44.87;118439.88;5033668;28;20060;-71
2023/06/20 08:33:19;;;;;;;16.77;9.93;;;;;;;-143.48;43.03;118439.88;5034362;28;20036;-71
2023/06/20 08:35:45;;;;;;;17.52;9.65;;;;;;;-143.48;43.87;118439.88;5015901;28;20022;-70
2023/06/20 08:38:11;;;;;;;13.95;9.90;;;;;;;-143.48;43.05;118439.88;5016225;28;20083;-71
2023/06/20 08:40:36;;;;;;;16.95;10.32;;;;;;;-143.48;42.99;118439.88;5016188;28;20025;-71
2023/06/20 08:43:02;;;;;;;18.67;10.50;;;;;;;-143.48;43.05;118439.88;5032708;28;20036;-71
2023/06/20 08:45:28;;;;;;;15.65;10.80;;;;;;;-143.48;43.96;118439.88;5016124;28;20032;-71
2023/06/20 08:47:58;;;;;;;24.33;10.27;;;;;;;-143.48;43.22;118439.88;5033965;28;20450;-71
2023/06/20 08:50:27;;;;;;;16.90;10.27;;;;;;;-143.48;41.36;118439.88;5016048;28;20032;-71
2023/06/20 08:52:56;;;;;;;21.92;9.43;;;;;;;-143.48;40.40;118439.88;5015759;28;20477;-71
2023/06/20 08:55:22;;;;;;;18.45;11.13;;;;;;;-143.48;41.25;118439.88;5016038;28;20024;-71
2023/06/20 08:57:48;;;;;;;16.20;9.65;;;;;;;-143.48;42.37;118439.88;5033246;28;20034;-70
2023/06/20 09:00:20;;;;;;;14.50;10.85;;;;;;;-143.48;43.04;118439.88;5033575;28;20037;-71
2023/06/20 09:02:50;;;;;;;18.30;10.93;;;;;;;-143.48;41.58;118439.88;5015637;28;20022;-70
2023/06/20 09:05:16;;;;;;;15.88;8.68;;;;;;;-143.48;40.59;118439.88;5015810;28;20021;-71
2023/06/20 09:07:42;;;;;;;19.58;10.52;;;;;;;-143.48;40.30;118439.88;5033023;28;20032;-71
2023/06/20 09:10:10;;;;;;;13.90;9.40;;;;;;;-143.48;40.08;118439.88;5033743;28;20167;-71
2023/06/20 09:12:46;;;;;;;13.50;9.55;;;;;;;-143.48;39.38;118439.88;5015892;28;20025;-72
2023/06/20 09:15:19;;;;;;;14.63;9.48;;;;;;;-143.48;40.59;118439.88;5033476;28;20021;-71
2023/06/20 09:17:45;;;;;;;15.07;8.57;;;;;;;-143.48;41.12;118439.88;5015687;28;20026;-71
2023/06/20 09:20:12;;;;;;;17.15;9.20;;;;;;;-143.48;40.56;118439.88;5033232;28;20057;-72
2023/06/20 09:22:41;;;;;;;13.02;9.10;;;;;;;-143.48;40.66;118439.88;5015688;28;20033;-72
2023/06/20 09:25:08;;;;;;;12.80;8.80;;;;;;;-143.48;40.03;118439.88;5033475;28;20049;-71
2023/06/20 09:27:40;;;;;;;13.38;8.50;;;;;;;-143.48;40.15;118439.88;5033399;28;20029;-71
2023/06/20 09:30:06;;;;;;;10.95;6.47;;;;;;;-143.48;38.49;118439.88;5015495;28;20045;-72
2023/06/20 09:32:39;;;;;;;8.85;5.90;;;;;;;-143.48;38.92;118439.88;5015663;28;20410;-71
2023/06/20 09:35:10;;;;;;;13.63;6.18;;;;;;;-143.48;38.70;118439.88;5015391;28;20025;-71
2023/06/20 09:37:48;;;;;;;13.35;7.05;;;;;;;-143.48;39.35;118439.88;5033219;28;20026;-71
2023/06/20 09:40:16;;;;;;;11.00;6.60;;;;;;;-143.48;38.89;118439.88;5015663;28;20026;-71
2023/06/20 09:42:43;;;;;;;13.13;6.03;;;;;;;-143.48;37.65;118439.88;5015147;28;20023;-72
2023/06/20 09:45:10;;;;;;;8.15;5.57;;;;;;;-143.48;38.14;118439.88;5015799;28;20030;-72
2023/06/20 09:47:38;;;;;;;7.93;5.38;;;;;;;-143.48;38.85;118439.88;5033132;28;20342;-72
2023/06/20 09:50:08;;;;;;;9.23;5.20;;;;;;;-143.48;39.69;118439.88;5015352;28;20028;-71
2023/06/20 09:52:42;;;;;;;10.93;4.95;;;;;;;-143.48;38.97;118439.88;5015670;28;20041;-72
2023/06/20 09:55:15;;;;;;;7.70;4.60;;;;;;;-143.48;38.50;118439.88;5036688;28;20025;-72
2023/06/20 09:57:49;;;;;;;6.78;4.10;;;;;;;-143.48;38.58;118439.88;5018793;28;20515;-71
2023/06/20 10:00:16;;;;;;;6.28;4.05;;;;;;;-143.48;38.61;118439.88;5019012;28;20079;-73
2023/06/20 10:02:47;;;;;;;6.80;4.68;;;;;;;-143.48;39.46;118439.88;5002479;28;20037;-71
2023/06/20 10:05:18;;;;;;;5.30;4.13;;;;;;;-143.48;39.00;118439.88;5019140;28;20037;-71
2023/06/20 10:07:45;;;;;;;8.48;4.15;;;;;;;-143.48;38.70;118439.88;5018873;28;20025;-72
2023/06/20 10:10:12;;;;;;;7.85;4.00;;;;;;;-143.48;38.73;118439.88;5018986;28;20025;-71
2023/06/20 10:12:39;;;;;;;7.15;4.20;;;;;;;-143.48;38.99;118439.88;5036715;28;20063;-72
2023/06/20 10:15:10;;;;;;;5.32;3.78;;;;;;;-143.48;37.42;118439.88;5036870;28;20083;-72
2023/06/20 10:17:40;;;;;;;7.65;4.93;;;;;;;-143.48;39.00;118439.88;5036569;28;20060;-71
2023/06/20 10:20:07;;;;;;;8.07;4.50;;;;;;;-143.48;38.85;118439.88;5018807;28;20104;-71
2023/06/20 10:22:42;;;;;;;10.07;4.43;;;;;;;-143.48;38.45;118439.88;5035992;28;20080;-71
2023/06/20 10:25:13;;;;;;;8.48;4.03;;;;;;;-143.48;37.36;118439.88;5018214;28;20469;-73
2023/06/20 10:27:55;;;;;;;7.68;4.68;;;;;;;-143.48;37.46;118439.88;5019064;28;20451;-71
2023/06/20 10:30:42;;;;;;;12.30;4.80;;;;;;;-143.48;37.91;118439.88;5018210;28;20084;-72
2023/06/20 10:33:09;;;;;;;6.35;4.68;;;;;;;-143.48;39.47;118439.88;5018359;28;20029;-72
2023/06/20 10:35:34;;;;;;;10.82;4.60;;;;;;;-143.48;38.84;118439.88;5035876;28;20025;-71
2023/06/20 10:38:10;;;;;;;7.18;4.63;;;;;;;-143.48;39.18;118439.88;5036382;28;20072;-71
2023/06/20 10:40:38;;;;;;;5.97;4.55;;;;;;;-143.48;37.89;118439.88;5018544;28;20453;-71
2023/06/20 10:43:17;;;;;;;9.43;4.70;;;;;;;-143.48;36.92;118439.88;5018338;28;20420;-71
2023/06/20 10:45:56;;;;;;;7.20;4.93;;;;;;;-143.48;37.63;118439.88;5018247;28;20392;-73
2023/06/20 10:48:23;;;;;;;9.13;5.15;;;;;;;-143.48;40.54;118439.88;5018248;28;20469;-71
2023/06/20 10:50:48;;;;;;;14.45;5.00;;;;;;;-143.48;39.13;118439.88;5018054;28;20377;-72
2023/06/20 10:53:14;;;;;;;7.72;4.90;;;;;;;-143.48;38.90;118439.88;5017949;28;20022;-72
2023/06/20 10:55:40;;;;;;;7.18;4.80;;;;;;;-143.48;37.04;118439.88;5018402;28;20025;-72
2023/06/20 10:58:06;;;;;;;6.03;5.07;;;;;;;-143.48;38.84;118439.88;5018206;28;20480;-72
2023/06/20 11:00:31;;;;;;;9.45;4.50;;;;;;;-143.48;38.00;118439.88;5017951;28;20354;-71
2023/06/20 11:02:57;;;;;;;8.95;5.03;;;;;;;-143.48;40.10;118439.88;5018641;28;20091;-71
2023/06/20 11:05:26;;;;;;;5.97;4.75;;;;;;;-143.48;39.75;118439.88;5018309;28;20120;-73